createdAt,value
2019-02-22T00:01:37.658Z,84.70
2019-02-22T00:04:06.141Z,84.56
2019-02-22T00:06:34.701Z,84.50
2019-02-22T00:09:04.881Z,84.81
2019-02-22T00:11:33.373Z,84.44
2019-02-22T00:14:01.851Z,84.40
2019-02-22T00:16:32.360Z,84.22
2019-02-22T00:19:00.605Z,84.13
2019-02-22T00:21:29.155Z,84.30
2019-02-22T00:23:57.740Z,84.26
2019-02-22T00:26:26.449Z,84.16
2019-02-22T00:28:54.982Z,84.02
2019-02-22T00:31:23.411Z,84.01
2019-02-22T00:33:51.922Z,83.58
2019-02-22T00:36:20.400Z,83.52
2019-02-22T00:38:48.981Z,83.60
2019-02-22T00:41:17.541Z,83.45
2019-02-22T00:43:46.025Z,83.65
2019-02-22T00:46:14.563Z,83.70
2019-02-22T00:48:43.098Z,83.78
2019-02-22T00:51:11.648Z,83.62
2019-02-22T00:53:40.121Z,83.38
2019-02-22T00:56:08.593Z,83.63
2019-02-22T00:58:37.095Z,83.58
2019-02-22T01:01:05.569Z,83.49
2019-02-22T01:03:34.069Z,83.65
2019-02-22T01:06:02.545Z,83.60
2019-02-22T01:08:31.046Z,83.78
2019-02-22T01:10:59.584Z,83.81
2019-02-22T01:13:28.096Z,83.59
2019-02-22T01:15:56.577Z,83.45
2019-02-22T01:18:25.040Z,83.39
2019-02-22T01:20:54.643Z,83.29
2019-02-22T01:23:23.400Z,83.62
2019-02-22T01:25:51.888Z,83.35
2019-02-22T01:28:20.347Z,83.54
2019-02-22T01:30:48.833Z,83.90
2019-02-22T01:33:17.290Z,83.80
2019-02-22T01:35:45.782Z,83.84
2019-02-22T01:38:14.265Z,83.72
2019-02-22T01:40:44.136Z,83.50
2019-02-22T01:43:12.796Z,83.40
2019-02-22T01:45:41.292Z,83.37
2019-02-22T01:48:09.778Z,83.34
2019-02-22T01:50:38.269Z,83.26
2019-02-22T01:53:06.844Z,83.40
2019-02-22T01:55:35.305Z,83.26
2019-02-22T01:58:03.774Z,83.41
2019-02-22T02:00:32.410Z,83.24
2019-02-22T02:03:03.797Z,83.18
2019-02-22T02:05:32.308Z,83.18
2019-02-22T02:08:00.784Z,83.22
2019-02-22T02:10:29.280Z,83.12
2019-02-22T02:12:57.747Z,83.17
2019-02-22T02:15:26.232Z,83.24
2019-02-22T02:17:54.688Z,83.14
2019-02-22T02:20:23.379Z,83.07
2019-02-22T02:22:51.824Z,83.20
2019-02-22T02:25:20.529Z,83.37
2019-02-22T02:27:48.999Z,83.62
2019-02-22T02:30:17.588Z,83.59
2019-02-22T02:32:46.081Z,83.30
2019-02-22T02:35:14.620Z,83.36
2019-02-22T02:37:43.208Z,83.36
2019-02-22T02:40:11.843Z,83.54
2019-02-22T02:42:40.339Z,83.49
2019-02-22T02:45:09.097Z,83.69
2019-02-22T02:47:37.589Z,84.03
2019-02-22T02:50:07.538Z,84.22
2019-02-22T02:52:36.032Z,84.06
2019-02-22T02:55:04.666Z,83.92
2019-02-22T02:57:33.184Z,83.81
2019-02-22T03:00:01.761Z,83.92
2019-02-22T03:02:31.305Z,83.79
2019-02-22T03:04:59.769Z,83.78
2019-02-22T03:07:44.989Z,83.81
2019-02-22T03:10:13.685Z,83.66
2019-02-22T03:12:42.236Z,83.76
2019-02-22T03:15:13.299Z,83.64
2019-02-22T03:17:41.864Z,83.85
2019-02-22T03:20:10.504Z,83.82
2019-02-22T03:22:38.980Z,83.74
2019-02-22T03:25:09.352Z,84.34
2019-02-22T03:27:37.921Z,84.11
2019-02-22T03:30:11.154Z,83.71
2019-02-22T03:32:39.670Z,83.78
2019-02-22T03:35:08.384Z,83.72
2019-02-22T03:37:36.927Z,83.65
2019-02-22T03:40:07.292Z,83.85
2019-02-22T03:42:35.747Z,84.03
2019-02-22T03:45:06.093Z,84.22
2019-02-22T03:47:35.460Z,83.96
2019-02-22T03:50:06.315Z,83.01
2019-02-22T03:52:39.209Z,82.36
2019-02-22T03:55:09.177Z,81.27
2019-02-22T03:57:37.720Z,81.63
2019-02-22T04:00:09.223Z,81.45
2019-02-22T04:02:37.695Z,81.26
2019-02-22T04:05:09.577Z,81.45
2019-02-22T04:07:38.044Z,81.43
2019-02-22T04:10:08.060Z,81.86
2019-02-22T04:12:36.593Z,81.85
2019-02-22T04:15:08.349Z,81.42
2019-02-22T04:17:37.053Z,81.54
2019-02-22T04:20:07.777Z,81.53
2019-02-22T04:22:36.297Z,81.56
2019-02-22T04:25:06.236Z,81.47
2019-02-22T04:27:34.691Z,81.75
2019-02-22T04:30:03.329Z,81.65
2019-02-22T04:32:31.825Z,81.31
2019-02-22T04:35:00.336Z,81.09
2019-02-22T04:37:28.777Z,80.65
2019-02-22T04:39:57.256Z,80.41
2019-02-22T04:42:25.739Z,80.30
2019-02-22T04:44:54.917Z,80.43
2019-02-22T04:47:23.397Z,80.17
2019-02-22T04:49:51.857Z,80.23
2019-02-22T04:52:20.347Z,79.99
2019-02-22T04:54:48.800Z,80.51
2019-02-22T04:57:17.277Z,80.97
2019-02-22T04:59:45.734Z,81.27
2019-02-22T05:02:14.276Z,81.08
2019-02-22T05:04:42.731Z,81.45
2019-02-22T05:07:11.230Z,81.33
2019-02-22T05:09:39.662Z,81.21
2019-02-22T05:12:11.171Z,81.05
2019-02-22T05:14:38.321Z,81.17
2019-02-22T05:17:06.805Z,81.14
2019-02-22T05:19:35.281Z,81.00
2019-02-22T05:22:03.777Z,80.95
2019-02-22T05:24:32.312Z,80.46
2019-02-22T05:27:00.880Z,80.58
2019-02-22T05:29:29.491Z,80.38
2019-02-22T05:31:57.986Z,81.31
2019-02-22T05:34:29.441Z,80.73
2019-02-22T05:36:57.908Z,80.54
2019-02-22T05:39:26.472Z,80.32
2019-02-22T05:41:54.936Z,80.58
2019-02-22T05:44:23.490Z,80.14
2019-02-22T05:46:59.946Z,79.92
2019-02-22T05:49:22.627Z,80.22
2019-02-22T05:51:51.093Z,79.92
2019-02-22T05:54:19.599Z,79.53
2019-02-22T05:56:48.063Z,79.87
2019-02-22T05:59:16.619Z,79.30
2019-02-22T06:01:45.164Z,78.87
2019-02-22T06:04:13.647Z,78.99
2019-02-22T06:06:42.114Z,79.08
2019-02-22T06:09:10.699Z,79.66
2019-02-22T06:11:39.148Z,79.97
2019-02-22T06:14:07.627Z,79.92
2019-02-22T06:16:37.757Z,79.27
2019-02-22T06:19:06.227Z,78.96
2019-02-22T06:21:34.732Z,78.68
2019-02-22T06:24:03.340Z,78.83
2019-02-22T06:26:31.940Z,78.58
2019-02-22T06:29:03.236Z,78.97
2019-02-22T06:31:31.742Z,78.36
2019-02-22T06:34:02.169Z,77.52
2019-02-22T06:36:30.655Z,78.71
2019-02-22T06:38:59.201Z,78.82
2019-02-22T06:41:30.678Z,78.71
2019-02-22T06:43:59.148Z,78.94
2019-02-22T06:46:27.630Z,78.75
2019-02-22T06:48:56.099Z,78.98
2019-02-22T06:51:24.602Z,78.41
2019-02-22T06:53:53.065Z,79.37
2019-02-22T06:56:24.186Z,79.05
2019-02-22T06:58:51.743Z,79.63
2019-02-22T07:01:20.220Z,79.51
2019-02-22T07:03:48.705Z,79.62
2019-02-22T07:06:17.267Z,79.76
2019-02-22T07:08:45.775Z,79.57
2019-02-22T07:11:15.881Z,79.57
2019-02-22T07:13:44.366Z,79.65
2019-02-22T07:16:12.901Z,79.56
2019-02-22T07:18:41.541Z,79.46
2019-02-22T07:21:12.758Z,79.17
2019-02-22T07:23:41.311Z,79.81
2019-02-22T07:26:09.882Z,79.71
2019-02-22T07:28:38.383Z,79.81
2019-02-22T07:31:06.866Z,79.37
2019-02-22T07:33:35.346Z,78.84
2019-02-22T07:36:03.831Z,78.35
2019-02-22T07:38:32.307Z,78.58
2019-02-22T07:41:00.861Z,76.83
2019-02-22T07:43:29.341Z,76.84
2019-02-22T07:45:57.816Z,74.60
2019-02-22T07:48:26.280Z,75.77
2019-02-22T07:50:58.075Z,75.79
2019-02-22T07:53:26.509Z,74.98
2019-02-22T07:55:54.988Z,74.80
2019-02-22T07:58:23.450Z,74.91
2019-02-22T08:00:51.997Z,75.34
2019-02-22T08:03:20.537Z,75.45
2019-02-22T08:05:49.140Z,75.14
2019-02-22T08:08:17.616Z,75.06
2019-02-22T08:10:46.079Z,75.28
2019-02-22T08:13:19.848Z,74.51
2019-02-22T08:15:44.752Z,73.06
2019-02-22T08:18:13.217Z,73.15
2019-02-22T08:20:41.713Z,72.39
2019-02-22T08:23:10.180Z,69.76
2019-02-22T08:25:38.745Z,70.90
2019-02-22T08:28:07.211Z,70.91
2019-02-22T08:30:35.697Z,70.09
2019-02-22T08:33:04.233Z,69.68
2019-02-22T08:35:32.930Z,70.32
2019-02-22T08:38:02.945Z,70.12
2019-02-22T08:40:31.424Z,70.62
2019-02-22T08:42:59.876Z,70.53
2019-02-22T08:45:28.410Z,69.10
2019-02-22T08:47:56.940Z,69.71
2019-02-22T08:50:25.477Z,70.71
2019-02-22T08:52:54.002Z,70.83
2019-02-22T08:55:22.635Z,70.74
2019-02-22T08:57:51.130Z,70.93
2019-02-22T09:00:19.852Z,69.92
2019-02-22T09:02:48.308Z,70.08
2019-02-22T09:05:17.000Z,70.44
2019-02-22T09:07:45.451Z,70.71
2019-02-22T09:10:14.297Z,70.59
2019-02-22T09:12:42.758Z,69.46
2019-02-22T09:15:11.644Z,69.51
2019-02-22T09:17:40.114Z,69.20
2019-02-22T09:20:11.380Z,69.44
2019-02-22T09:22:39.911Z,68.40
2019-02-22T09:25:08.750Z,68.10
2019-02-22T09:27:37.293Z,69.03
2019-02-22T09:30:09.227Z,68.73
2019-02-22T09:32:37.713Z,68.90
2019-02-22T09:35:08.854Z,69.28
2019-02-22T09:37:37.479Z,69.26
2019-02-22T09:40:09.004Z,68.51
2019-02-22T09:42:39.044Z,68.88
2019-02-22T09:45:10.555Z,68.46
2019-02-22T09:47:39.094Z,68.18
2019-02-22T09:50:10.525Z,67.51
2019-02-22T09:52:39.000Z,68.22
2019-02-22T09:55:09.991Z,67.75
2019-02-22T09:57:38.837Z,67.62
2019-02-22T10:00:10.694Z,67.80
2019-02-22T10:02:39.211Z,68.10
2019-02-22T10:05:09.815Z,67.24
2019-02-22T10:07:38.292Z,66.76
2019-02-22T10:10:09.530Z,65.83
2019-02-22T10:12:37.981Z,66.95
2019-02-22T10:15:08.388Z,66.08
2019-02-22T10:17:36.857Z,67.32
2019-02-22T10:20:08.225Z,64.60
2019-02-22T10:22:36.715Z,63.96
2019-02-22T10:25:06.673Z,64.63
2019-02-22T10:27:38.308Z,62.79
2019-02-22T10:30:10.118Z,63.22
2019-02-22T10:32:38.596Z,61.82
2019-02-22T10:35:08.126Z,64.07
2019-02-22T10:37:36.581Z,61.64
2019-02-22T10:40:08.088Z,64.11
2019-02-22T10:42:36.543Z,60.71
2019-02-22T10:45:07.928Z,59.98
2019-02-22T10:47:36.368Z,61.20
2019-02-22T10:50:05.827Z,57.08
2019-02-22T10:52:34.272Z,58.97
2019-02-22T10:55:02.957Z,58.54
2019-02-22T10:57:31.393Z,57.81
2019-02-22T10:59:59.883Z,59.90
2019-02-22T11:02:28.355Z,58.87
2019-02-22T11:04:56.847Z,56.93
2019-02-22T11:07:25.347Z,56.97
2019-02-22T11:09:53.816Z,55.91
2019-02-22T11:12:24.361Z,56.96
2019-02-22T11:14:52.521Z,57.83
2019-02-22T11:17:21.069Z,57.23
2019-02-22T11:19:49.526Z,55.36
2019-02-22T11:22:18.031Z,56.20
2019-02-22T11:24:49.280Z,56.14
2019-02-22T11:27:17.741Z,56.56
2019-02-22T11:29:48.800Z,53.72
2019-02-22T11:32:17.960Z,54.55
2019-02-22T11:34:48.472Z,55.87
2019-02-22T11:37:16.938Z,55.42
2019-02-22T11:39:48.527Z,54.79
2019-02-22T11:42:17.009Z,55.60
2019-02-22T11:44:45.477Z,55.05
2019-02-22T11:47:13.955Z,53.37
2019-02-22T11:49:42.505Z,51.56
2019-02-22T11:52:10.971Z,51.11
2019-02-22T11:54:39.428Z,51.57
2019-02-22T11:57:08.143Z,52.54
2019-02-22T11:59:36.607Z,51.73
2019-02-22T12:02:05.298Z,51.51
2019-02-22T12:04:33.822Z,50.94
2019-02-22T12:07:02.465Z,51.62
2019-02-22T12:09:38.418Z,51.91
2019-02-22T12:12:07.014Z,50.91
2019-02-22T12:14:36.006Z,49.92
2019-02-22T12:17:04.560Z,49.42
2019-02-22T12:19:33.015Z,50.80
2019-02-22T12:22:01.484Z,52.41
2019-02-22T12:24:30.025Z,50.29
2019-02-22T12:26:58.486Z,47.93
2019-02-22T12:29:26.969Z,48.03
2019-02-22T12:31:55.455Z,50.10
2019-02-22T12:34:25.420Z,50.04
2019-02-22T12:36:53.906Z,47.59
2019-02-22T12:39:24.558Z,47.47
2019-02-22T12:41:53.745Z,47.51
2019-02-22T12:44:22.263Z,48.98
2019-02-22T12:46:50.729Z,49.68
2019-02-22T12:49:19.170Z,48.97
2019-02-22T12:51:47.750Z,46.52
2019-02-22T12:54:16.215Z,48.89
2019-02-22T12:56:57.080Z,49.52
2019-02-22T12:59:14.971Z,48.22
2019-02-22T13:01:43.552Z,47.70
2019-02-22T13:04:12.100Z,48.81
2019-02-22T13:06:40.595Z,48.67
2019-02-22T13:09:09.491Z,46.76
2019-02-22T13:11:37.957Z,45.85
2019-02-22T13:14:06.498Z,45.38
2019-02-22T13:16:35.020Z,44.30
2019-02-22T13:19:03.480Z,44.10
2019-02-22T13:21:31.941Z,43.80
2019-02-22T13:24:00.390Z,44.62
2019-02-22T13:26:28.864Z,43.46
2019-02-22T13:28:57.354Z,42.33
2019-02-22T13:31:30.232Z,41.05
2019-02-22T13:33:56.079Z,39.91
2019-02-22T13:36:24.621Z,41.56
2019-02-22T13:38:53.130Z,41.37
2019-02-22T13:41:21.592Z,40.75
2019-02-22T13:43:50.121Z,40.27
2019-02-22T13:46:18.599Z,39.27
2019-02-22T13:48:47.136Z,40.68
2019-02-22T13:51:15.593Z,39.84
2019-02-22T13:53:45.681Z,40.24
2019-02-22T13:56:14.165Z,39.35
2019-02-22T13:58:42.607Z,39.10
2019-02-22T14:01:11.095Z,40.65
2019-02-22T14:03:39.551Z,39.90
2019-02-22T14:06:08.051Z,41.05
2019-02-22T14:08:36.532Z,42.39
2019-02-22T14:11:05.012Z,41.92
2019-02-22T14:13:33.539Z,43.10
2019-02-22T14:16:02.004Z,43.13
2019-02-22T14:18:30.480Z,43.64
2019-02-22T14:20:58.942Z,43.99
2019-02-22T14:23:27.421Z,42.90
2019-02-22T14:25:55.925Z,43.51
2019-02-22T14:28:24.405Z,41.96
2019-02-22T14:30:52.855Z,43.98
2019-02-22T14:33:21.329Z,44.53
2019-02-22T14:35:49.780Z,44.78
2019-02-22T14:38:18.272Z,44.45
2019-02-22T14:40:46.728Z,45.08
2019-02-22T14:43:16.897Z,44.41
2019-02-22T14:45:49.266Z,45.32
2019-02-22T14:48:15.648Z,44.65
2019-02-22T14:50:44.208Z,46.00
2019-02-22T14:53:19.648Z,46.50
2019-02-22T14:55:43.052Z,46.32
2019-02-22T14:58:11.536Z,46.36
2019-02-22T15:00:40.004Z,46.46
2019-02-22T15:03:08.474Z,46.19
2019-02-22T15:05:36.939Z,46.28
2019-02-22T15:08:05.494Z,46.77
2019-02-22T15:10:34.012Z,46.06
2019-02-22T15:13:02.502Z,47.03
2019-02-22T15:18:26.334Z,48.43
2019-02-22T15:20:55.164Z,46.74
2019-02-22T15:23:23.658Z,47.22
2019-02-22T15:25:52.161Z,46.75
2019-02-22T15:28:20.632Z,46.67
2019-02-22T15:30:49.088Z,47.90
2019-02-22T15:33:18.401Z,47.43
2019-02-22T15:35:47.061Z,48.23
2019-02-22T15:38:15.564Z,47.62
2019-02-22T15:40:44.111Z,47.63
2019-02-22T15:43:12.602Z,47.62
2019-02-22T15:45:41.099Z,48.07
2019-02-22T15:48:09.609Z,48.91
2019-02-22T15:50:39.853Z,48.79
2019-02-22T15:53:08.330Z,47.98
2019-02-22T15:55:36.796Z,48.33
2019-02-22T15:58:05.283Z,49.38
2019-02-22T16:00:34.915Z,49.27
2019-02-22T16:03:05.072Z,48.69
2019-02-22T16:05:35.258Z,49.16
2019-02-22T16:08:03.806Z,49.58
2019-02-22T16:10:32.358Z,49.82
2019-02-22T16:13:00.840Z,49.39
2019-02-22T16:15:29.313Z,49.45
2019-02-22T16:18:02.513Z,49.67
2019-02-22T16:20:30.993Z,50.19
2019-02-22T16:23:04.486Z,50.32
2019-02-22T16:25:32.987Z,50.53
2019-02-22T16:28:01.557Z,50.91
2019-02-22T16:30:30.898Z,50.83
2019-02-22T16:32:59.362Z,50.74
2019-02-22T16:35:27.934Z,50.42
2019-02-22T16:37:56.426Z,50.77
2019-02-22T16:40:25.001Z,50.84
2019-02-22T16:42:54.999Z,51.03
2019-02-22T16:45:23.655Z,51.17
2019-02-22T16:47:52.141Z,51.31
2019-02-22T16:50:20.827Z,51.38
2019-02-22T16:52:49.297Z,52.17
2019-02-22T16:55:18.000Z,52.95
2019-02-22T16:57:47.977Z,53.26
2019-02-22T17:00:17.417Z,53.38
2019-02-22T17:02:45.875Z,53.51
2019-02-22T17:05:16.997Z,53.72
2019-02-22T17:07:45.540Z,54.06
2019-02-22T17:10:16.150Z,54.31
2019-02-22T17:12:46.205Z,54.72
2019-02-22T17:15:15.308Z,55.51
2019-02-22T17:17:43.837Z,55.56
2019-02-22T17:20:14.210Z,56.81
2019-02-22T17:22:42.698Z,57.16
2019-02-22T17:25:14.028Z,56.78
2019-02-22T17:27:42.500Z,56.38
2019-02-22T17:30:20.001Z,55.67
2019-02-22T17:32:48.529Z,56.07
2019-02-22T17:35:17.246Z,55.83
2019-02-22T17:37:50.695Z,56.24
2019-02-22T17:40:30.080Z,56.48
2019-02-22T17:42:58.551Z,56.66
2019-02-22T17:45:27.015Z,56.41
2019-02-22T17:48:22.821Z,56.36
2019-02-22T17:50:51.302Z,56.25
2019-02-22T17:53:21.589Z,56.65
2019-02-22T17:55:50.686Z,56.65
2019-02-22T17:58:24.466Z,56.54
2019-02-22T18:00:49.449Z,56.86
2019-02-22T18:03:24.413Z,57.20
2019-02-22T18:05:52.912Z,57.35
2019-02-22T18:08:21.382Z,57.19
2019-02-22T18:10:49.938Z,57.21
2019-02-22T18:13:18.401Z,57.00
2019-02-22T18:15:58.022Z,57.08
2019-02-22T18:18:25.735Z,56.97
2019-02-22T18:20:54.287Z,57.44
2019-02-22T18:23:22.800Z,57.62
2019-02-22T18:25:51.349Z,57.72
2019-02-22T18:28:22.519Z,57.77
2019-02-22T18:30:51.033Z,58.03
2019-02-22T18:33:21.082Z,58.22
2019-02-22T18:35:51.035Z,58.66
2019-02-22T18:38:19.554Z,58.67
2019-02-22T18:40:48.648Z,58.58
2019-02-22T18:43:18.463Z,58.89
2019-02-22T18:45:47.152Z,59.21
2019-02-22T18:51:47.702Z,59.62
2019-02-22T18:54:16.199Z,59.89
2019-02-22T18:56:44.665Z,60.03
2019-02-22T18:59:14.926Z,60.36
2019-02-22T19:01:45.885Z,60.24
2019-02-22T19:04:14.480Z,60.65
2019-02-22T19:06:42.953Z,60.82
2019-02-22T19:09:11.494Z,60.68
2019-02-22T19:11:39.957Z,62.13
2019-02-22T19:14:08.439Z,62.34
2019-02-22T19:16:36.921Z,62.92
2019-02-22T19:19:05.400Z,62.67
2019-02-22T19:21:33.885Z,62.47
2019-02-22T19:24:02.581Z,62.24
2019-02-22T19:26:31.127Z,62.16
2019-02-22T19:28:59.582Z,62.42
2019-02-22T19:31:28.073Z,61.93
2019-02-22T19:33:56.602Z,62.07
2019-02-22T19:36:25.101Z,61.27
2019-02-22T19:38:53.588Z,61.07
2019-02-22T19:41:22.054Z,60.92
2019-02-22T19:43:50.559Z,60.82
2019-02-22T19:46:19.054Z,60.43
2019-02-22T19:48:47.507Z,60.40
2019-02-22T19:51:18.834Z,60.60
2019-02-22T19:53:47.326Z,60.57
2019-02-22T19:56:15.811Z,60.52
2019-02-22T19:58:45.819Z,60.18
2019-02-22T20:01:14.376Z,59.98
2019-02-22T20:03:43.478Z,59.87
2019-02-22T20:06:12.184Z,60.16
2019-02-22T20:08:40.906Z,60.45
2019-02-22T20:11:09.719Z,60.43
2019-02-22T20:13:38.358Z,60.29
2019-02-22T20:16:06.944Z,60.30
2019-02-22T20:18:35.593Z,60.26
2019-02-22T20:21:07.455Z,60.27
2019-02-22T20:23:36.191Z,60.23
2019-02-22T20:26:04.894Z,60.43
2019-02-22T20:28:35.201Z,60.58
2019-02-22T20:31:04.181Z,60.57
2019-02-22T20:33:32.671Z,60.71
2019-02-22T20:36:02.674Z,60.71
2019-02-22T20:38:31.708Z,61.00
2019-02-22T20:41:00.396Z,61.19
2019-02-22T20:43:29.236Z,61.18
2019-02-22T20:45:57.995Z,61.31
2019-02-22T20:48:27.004Z,61.60
2019-02-22T20:50:55.630Z,61.72
2019-02-22T20:53:24.324Z,61.76
2019-02-22T20:55:52.995Z,61.67
2019-02-22T20:58:21.475Z,61.60
2019-02-22T21:00:53.745Z,61.60
2019-02-22T21:03:22.225Z,61.65
2019-02-22T21:05:50.764Z,61.55
2019-02-22T21:08:19.245Z,61.36
2019-02-22T21:10:49.014Z,61.62
2019-02-22T21:13:17.489Z,61.61
2019-02-22T21:15:46.114Z,61.54
2019-02-22T21:18:17.323Z,61.30
2019-02-22T21:20:45.800Z,61.13
2019-02-22T21:23:14.309Z,61.00
2019-02-22T21:25:42.873Z,61.38
2019-02-22T21:28:11.355Z,60.99
2019-02-22T21:30:39.832Z,60.90
2019-02-22T21:33:08.304Z,60.75
2019-02-22T21:35:36.931Z,60.94
2019-02-22T21:38:07.451Z,60.76
2019-02-22T21:40:35.750Z,61.02
2019-02-22T21:43:05.769Z,60.59
2019-02-22T21:45:42.599Z,60.37
2019-02-22T21:48:11.125Z,60.42
2019-02-22T21:50:39.614Z,60.61
2019-02-22T21:53:08.096Z,59.99
2019-02-22T21:55:36.584Z,60.22
2019-02-22T21:58:07.674Z,60.25
2019-02-22T22:00:36.237Z,60.35
2019-02-22T22:03:04.780Z,60.32
2019-02-22T22:05:37.487Z,60.27
2019-02-22T22:08:07.857Z,60.39
2019-02-22T22:10:36.377Z,60.29
2019-02-22T22:13:04.876Z,60.15
2019-02-22T22:15:36.540Z,60.25
2019-02-22T22:18:06.146Z,60.49
2019-02-22T22:20:34.610Z,60.45
2019-02-22T22:23:03.139Z,60.40
2019-02-22T22:25:31.613Z,60.43
2019-02-22T22:28:00.199Z,60.24
2019-02-22T22:30:28.660Z,59.98
2019-02-22T22:32:58.148Z,60.06
2019-02-22T22:35:26.614Z,60.19
2019-02-22T22:37:55.120Z,60.30
2019-02-22T22:40:23.863Z,60.54
2019-02-22T22:42:52.327Z,60.36
2019-02-22T22:45:20.894Z,60.16
2019-02-22T22:47:49.371Z,60.20
2019-02-22T22:50:18.340Z,60.28
2019-02-22T22:52:46.816Z,60.26
2019-02-22T22:55:18.729Z,60.23
2019-02-22T22:57:47.483Z,60.28
2019-02-22T23:03:21.696Z,60.04
2019-02-22T23:05:50.226Z,59.79
2019-02-22T23:08:18.719Z,59.79
2019-02-22T23:10:47.307Z,60.07
2019-02-22T23:13:15.768Z,59.87
2019-02-22T23:15:44.245Z,59.91
2019-02-22T23:18:12.784Z,59.78
2019-02-22T23:20:41.401Z,59.75
2019-02-22T23:23:10.032Z,60.09
2019-02-22T23:25:38.584Z,60.24
2019-02-22T23:28:11.584Z,59.93
2019-02-22T23:30:40.073Z,60.17
2019-02-22T23:33:08.626Z,60.31
2019-02-22T23:35:37.188Z,60.23
2019-02-22T23:38:05.658Z,60.14
2019-02-22T23:40:34.144Z,60.28
2019-02-22T23:43:02.626Z,60.18
2019-02-22T23:45:31.188Z,60.09
2019-02-22T23:47:59.649Z,59.94
2019-02-22T23:50:28.175Z,60.42
2019-02-22T23:52:56.645Z,60.86
2019-02-22T23:55:25.124Z,60.71
2019-02-22T23:57:53.619Z,60.82
